createdAt,value
2022-12-03T00:01:25.900Z,76.47
2022-12-03T00:04:28.955Z,76.44
2022-12-03T00:07:31.934Z,76.48
2022-12-03T00:10:34.932Z,76.50
2022-12-03T00:13:37.922Z,76.50
2022-12-03T00:16:41.059Z,76.52
2022-12-03T00:19:44.000Z,76.55
2022-12-03T00:22:48.880Z,76.61
2022-12-03T00:25:52.061Z,76.69
2022-12-03T00:28:55.023Z,76.70
2022-12-03T00:31:58.043Z,76.73
2022-12-03T00:35:00.974Z,76.76
2022-12-03T00:38:03.924Z,76.78
2022-12-03T00:41:06.994Z,76.83
2022-12-03T00:44:10.398Z,76.84
2022-12-03T00:47:13.495Z,76.87
2022-12-03T00:50:16.721Z,76.94
2022-12-03T00:53:19.890Z,77.01
2022-12-03T00:56:22.922Z,77.03
2022-12-03T00:59:26.106Z,77.06
2022-12-03T01:02:29.031Z,77.10
2022-12-03T01:05:32.070Z,77.13
2022-12-03T01:08:35.131Z,77.19
2022-12-03T01:11:38.025Z,77.26
2022-12-03T01:14:41.025Z,77.28
2022-12-03T01:17:43.979Z,77.30
2022-12-03T01:20:47.091Z,77.33
2022-12-03T01:23:49.975Z,77.33
2022-12-03T01:26:53.029Z,77.33
2022-12-03T01:29:55.921Z,77.32
2022-12-03T01:32:58.866Z,77.35
2022-12-03T01:36:01.815Z,77.39
2022-12-03T01:39:04.978Z,77.43
2022-12-03T01:42:11.891Z,77.45
2022-12-03T01:45:22.270Z,77.49
2022-12-03T01:48:25.344Z,77.50
2022-12-03T01:51:29.985Z,77.49
2022-12-03T01:54:40.241Z,77.55
2022-12-03T01:57:47.605Z,77.57
2022-12-03T02:00:50.849Z,77.55
2022-12-03T02:03:53.776Z,77.54
2022-12-03T02:06:56.772Z,77.56
2022-12-03T02:10:02.520Z,77.57
2022-12-03T02:13:10.335Z,77.56
2022-12-03T02:16:13.623Z,77.62
2022-12-03T02:19:27.858Z,77.68
2022-12-03T02:22:36.260Z,77.75
2022-12-03T02:25:39.493Z,77.83
2022-12-03T02:28:42.656Z,77.82
2022-12-03T02:31:45.699Z,77.81
2022-12-03T02:34:49.565Z,77.83
2022-12-03T02:37:58.191Z,77.84
2022-12-03T02:41:06.233Z,77.85
2022-12-03T02:44:09.865Z,77.86
2022-12-03T02:47:13.190Z,77.83
2022-12-03T02:50:22.118Z,77.90
2022-12-03T02:53:28.944Z,77.94
2022-12-03T02:56:33.144Z,77.94
2022-12-03T02:59:36.123Z,77.96
2022-12-03T03:02:40.714Z,78.01
2022-12-03T03:05:45.083Z,78.02
2022-12-03T03:08:48.261Z,78.06
2022-12-03T03:11:51.197Z,78.14
2022-12-03T03:14:54.579Z,78.17
2022-12-03T03:17:57.808Z,78.21
2022-12-03T03:21:00.932Z,78.20
2022-12-03T03:24:04.970Z,78.17
2022-12-03T03:27:08.041Z,78.13
2022-12-03T03:30:12.333Z,78.12
2022-12-03T03:33:16.547Z,78.16
2022-12-03T03:36:20.372Z,78.14
2022-12-03T03:39:23.486Z,78.14
2022-12-03T03:42:26.574Z,78.18
2022-12-03T03:45:29.944Z,78.21
2022-12-03T03:48:34.725Z,78.26
2022-12-03T03:51:38.668Z,78.28
2022-12-03T03:54:41.825Z,78.35
2022-12-03T03:57:44.806Z,78.37
2022-12-03T04:00:48.174Z,78.37
2022-12-03T04:03:53.732Z,78.36
2022-12-03T04:06:56.758Z,78.37
2022-12-03T04:10:20.656Z,78.40
2022-12-03T04:13:23.656Z,78.44
2022-12-03T04:16:26.815Z,78.48
2022-12-03T04:19:29.817Z,78.48
2022-12-03T04:22:41.934Z,78.54
2022-12-03T04:26:23.275Z,78.60
2022-12-03T04:29:26.310Z,78.58
2022-12-03T04:32:47.919Z,78.56
2022-12-03T04:35:51.042Z,78.56
2022-12-03T04:38:53.972Z,78.55
2022-12-03T04:41:57.696Z,78.54
2022-12-03T04:45:00.663Z,78.55
2022-12-03T04:48:03.800Z,78.59
2022-12-03T04:51:06.707Z,78.61
2022-12-03T04:54:09.764Z,78.60
2022-12-03T04:57:13.258Z,78.61
2022-12-03T05:00:16.561Z,78.63
2022-12-03T05:03:19.525Z,78.65
2022-12-03T05:06:22.787Z,78.65
2022-12-03T05:09:25.842Z,78.65
2022-12-03T05:12:28.830Z,78.66
2022-12-03T05:15:31.756Z,78.66
2022-12-03T05:18:34.776Z,78.70
2022-12-03T05:21:37.724Z,78.70
2022-12-03T05:24:40.755Z,78.73
2022-12-03T05:27:43.766Z,78.75
2022-12-03T05:30:46.795Z,78.78
2022-12-03T05:33:49.864Z,78.82
2022-12-03T05:36:52.862Z,78.87
2022-12-03T05:39:55.840Z,78.87
2022-12-03T05:43:01.161Z,78.84
2022-12-03T05:46:04.199Z,78.85
2022-12-03T05:49:07.214Z,78.87
2022-12-03T05:52:10.198Z,78.87
2022-12-03T05:55:13.839Z,78.85
2022-12-03T05:58:16.795Z,78.87
2022-12-03T06:01:19.823Z,78.88
2022-12-03T06:04:22.816Z,78.89
2022-12-03T06:07:26.658Z,78.90
2022-12-03T06:10:29.783Z,78.93
2022-12-03T06:13:32.843Z,78.94
2022-12-03T06:16:38.827Z,78.97
2022-12-03T06:19:41.837Z,78.97
2022-12-03T06:22:45.475Z,78.99
2022-12-03T06:25:48.497Z,79.02
2022-12-03T06:28:51.422Z,79.03
2022-12-03T06:31:54.389Z,79.08
2022-12-03T06:34:57.390Z,79.08
2022-12-03T06:38:00.463Z,79.10
2022-12-03T06:41:05.115Z,79.09
2022-12-03T06:44:08.055Z,79.11
2022-12-03T06:47:10.997Z,79.13
2022-12-03T06:50:14.146Z,79.16
2022-12-03T06:53:17.208Z,79.19
2022-12-03T06:56:22.449Z,79.21
2022-12-03T06:59:26.133Z,79.21
2022-12-03T07:02:29.187Z,79.18
2022-12-03T07:05:32.251Z,79.16
2022-12-03T07:08:35.507Z,79.18
2022-12-03T07:11:41.435Z,79.13
2022-12-03T07:14:44.354Z,79.12
2022-12-03T07:17:47.285Z,79.12
2022-12-03T07:20:51.599Z,79.12
2022-12-03T07:23:59.525Z,79.09
2022-12-03T07:27:02.865Z,79.05
2022-12-03T07:30:18.740Z,79.05
2022-12-03T07:33:21.831Z,79.04
2022-12-03T07:36:24.922Z,79.06
2022-12-03T07:39:28.170Z,79.08
2022-12-03T07:42:31.165Z,79.09
2022-12-03T07:45:34.070Z,79.13
2022-12-03T07:48:37.007Z,79.08
2022-12-03T07:51:40.345Z,79.10
2022-12-03T07:54:43.246Z,79.06
2022-12-03T07:57:46.338Z,79.09
2022-12-03T08:00:49.353Z,79.08
2022-12-03T08:03:52.631Z,79.08
2022-12-03T08:06:55.706Z,79.06
2022-12-03T08:09:58.716Z,79.06
2022-12-03T08:13:02.964Z,79.01
2022-12-03T08:16:15.167Z,79.01
2022-12-03T08:19:18.547Z,79.03
2022-12-03T08:22:22.408Z,79.06
2022-12-03T08:25:28.577Z,79.03
2022-12-03T08:28:32.061Z,79.03
2022-12-03T08:31:35.077Z,79.06
2022-12-03T08:34:43.688Z,79.03
2022-12-03T08:37:46.749Z,78.99
2022-12-03T08:40:52.104Z,79.01
2022-12-03T08:43:55.257Z,79.06
2022-12-03T08:47:16.400Z,79.09
2022-12-03T08:50:43.072Z,79.04
2022-12-03T08:53:48.487Z,79.08
2022-12-03T08:56:51.777Z,79.01
2022-12-03T08:59:59.978Z,79.00
2022-12-03T09:03:03.189Z,78.95
2022-12-03T09:06:06.491Z,78.92
2022-12-03T09:09:09.562Z,78.89
2022-12-03T09:12:12.497Z,78.88
2022-12-03T09:15:16.515Z,78.88
2022-12-03T09:18:19.520Z,78.85
2022-12-03T09:21:22.560Z,78.82
2022-12-03T09:24:25.556Z,78.86
2022-12-03T09:27:28.685Z,78.91
2022-12-03T09:30:31.943Z,78.87
2022-12-03T09:33:35.324Z,78.89
2022-12-03T09:36:38.311Z,78.96
2022-12-03T09:39:41.279Z,78.98
2022-12-03T09:42:44.757Z,79.02
2022-12-03T09:45:49.215Z,79.04
2022-12-03T09:48:52.560Z,79.04
2022-12-03T09:51:58.668Z,79.08
2022-12-03T09:55:08.034Z,79.16
2022-12-03T09:58:13.814Z,79.25
2022-12-03T10:01:17.895Z,79.28
2022-12-03T10:04:21.407Z,79.28
2022-12-03T10:07:25.955Z,79.23
2022-12-03T10:10:29.143Z,79.21
2022-12-03T10:13:34.567Z,79.19
2022-12-03T10:16:40.413Z,79.16
2022-12-03T10:19:44.746Z,79.17
2022-12-03T10:22:49.006Z,79.16
2022-12-03T10:26:03.026Z,79.14
2022-12-03T10:29:13.346Z,79.18
2022-12-03T10:32:16.339Z,79.21
2022-12-03T10:35:36.362Z,79.27
2022-12-03T10:38:39.315Z,79.32
2022-12-03T10:41:44.451Z,79.32
2022-12-03T10:44:47.462Z,79.40
2022-12-03T10:48:27.456Z,79.45
2022-12-03T10:51:30.980Z,79.46
2022-12-03T10:54:35.524Z,79.45
2022-12-03T10:57:43.711Z,79.51
2022-12-03T11:00:50.380Z,79.52
2022-12-03T11:04:04.745Z,79.60
2022-12-03T11:07:20.161Z,79.64
2022-12-03T11:10:23.838Z,79.69
2022-12-03T11:13:45.362Z,79.64
2022-12-03T11:16:51.455Z,79.62
2022-12-03T11:19:54.735Z,79.64
2022-12-03T11:22:58.964Z,79.58
2022-12-03T11:26:03.129Z,79.55
2022-12-03T11:29:14.087Z,79.57
2022-12-03T11:32:39.222Z,79.61
2022-12-03T11:36:03.878Z,79.65
2022-12-03T11:39:09.564Z,79.68
2022-12-03T11:42:27.632Z,79.72
2022-12-03T11:45:36.805Z,79.81
2022-12-03T11:48:47.424Z,79.82
2022-12-03T11:51:51.142Z,79.87
2022-12-03T11:54:59.703Z,79.89
2022-12-03T11:58:29.672Z,79.98
2022-12-03T12:01:38.527Z,80.02
2022-12-03T12:04:46.780Z,79.98
2022-12-03T12:07:50.919Z,80.02
2022-12-03T12:10:54.279Z,80.06
2022-12-03T12:13:58.584Z,80.12
2022-12-03T12:17:03.724Z,80.11
2022-12-03T12:20:30.399Z,80.12
2022-12-03T12:23:33.465Z,80.18
2022-12-03T12:26:36.366Z,80.14
2022-12-03T12:29:42.331Z,80.07
2022-12-03T12:32:48.157Z,80.07
2022-12-03T12:35:51.338Z,80.09
2022-12-03T12:38:54.315Z,80.14
2022-12-03T12:41:57.963Z,80.15
2022-12-03T12:45:16.360Z,80.18
2022-12-03T12:48:34.296Z,80.17
2022-12-03T12:51:49.390Z,80.12
2022-12-03T12:54:52.402Z,80.10
2022-12-03T12:58:00.006Z,80.12
2022-12-03T13:01:21.455Z,80.12
2022-12-03T13:04:24.970Z,80.17
2022-12-03T13:07:28.249Z,80.22
2022-12-03T13:10:41.967Z,80.24
2022-12-03T13:13:44.937Z,80.30
2022-12-03T13:16:49.843Z,80.33
2022-12-03T13:20:03.684Z,80.35
2022-12-03T13:23:27.399Z,80.38
2022-12-03T13:26:39.790Z,80.47
2022-12-03T13:29:44.118Z,80.54
2022-12-03T13:32:47.035Z,80.50
2022-12-03T13:35:52.582Z,80.52
2022-12-03T13:38:55.539Z,80.60
2022-12-03T13:42:34.598Z,80.65
2022-12-03T13:45:40.463Z,80.68
2022-12-03T13:48:45.293Z,80.71
2022-12-03T13:51:49.303Z,80.71
2022-12-03T13:54:55.155Z,80.71
2022-12-03T13:57:58.239Z,80.72
2022-12-03T14:01:01.284Z,80.73
2022-12-03T14:04:04.525Z,80.71
2022-12-03T14:07:07.485Z,80.67
2022-12-03T14:10:11.748Z,80.63
2022-12-03T14:13:14.792Z,80.66
2022-12-03T14:16:17.810Z,80.70
2022-12-03T14:19:20.774Z,80.83
2022-12-03T14:22:25.378Z,80.90
2022-12-03T14:25:28.434Z,80.90
2022-12-03T14:28:31.437Z,80.92
2022-12-03T14:31:34.401Z,80.99
2022-12-03T14:34:37.418Z,81.01
2022-12-03T14:37:40.315Z,81.01
2022-12-03T14:40:43.260Z,81.05
2022-12-03T14:43:46.207Z,81.12
2022-12-03T14:46:55.378Z,81.13
2022-12-03T14:50:00.003Z,81.17
2022-12-03T14:53:02.954Z,81.20
2022-12-03T14:56:05.853Z,81.18
2022-12-03T14:59:08.842Z,81.28
2022-12-03T15:02:12.473Z,81.38
2022-12-03T15:05:15.688Z,81.42
2022-12-03T15:08:18.766Z,81.44
2022-12-03T15:11:21.770Z,81.51
2022-12-03T15:14:24.676Z,81.52
2022-12-03T15:17:31.652Z,81.55
2022-12-03T15:20:35.716Z,81.60
2022-12-03T15:23:38.819Z,81.64
2022-12-03T15:26:41.720Z,81.61
2022-12-03T15:29:44.636Z,81.63
2022-12-03T15:32:47.695Z,81.65
2022-12-03T15:35:50.586Z,81.72
2022-12-03T15:38:53.701Z,81.78
2022-12-03T15:41:56.617Z,81.81
2022-12-03T15:44:59.514Z,81.82
2022-12-03T15:48:02.904Z,81.82
2022-12-03T15:51:07.045Z,81.87
2022-12-03T15:54:12.263Z,81.91
2022-12-03T15:57:15.710Z,81.98
2022-12-03T16:00:19.046Z,82.02
2022-12-03T16:03:22.013Z,82.12
2022-12-03T16:06:25.172Z,82.19
2022-12-03T16:09:28.156Z,82.19
2022-12-03T16:12:31.187Z,82.23
2022-12-03T16:15:35.239Z,82.27
2022-12-03T16:18:38.314Z,82.26
2022-12-03T16:21:41.231Z,82.24
2022-12-03T16:24:44.206Z,82.26
2022-12-03T16:27:47.534Z,82.30
2022-12-03T16:30:50.487Z,82.35
2022-12-03T16:33:53.471Z,82.34
2022-12-03T16:36:56.417Z,82.35
2022-12-03T16:39:59.446Z,82.38
2022-12-03T16:43:04.437Z,82.35
2022-12-03T16:46:34.164Z,82.40
2022-12-03T16:49:37.147Z,82.43
2022-12-03T16:52:40.112Z,82.45
2022-12-03T16:55:43.108Z,82.44
2022-12-03T16:58:46.134Z,82.47
2022-12-03T17:01:49.063Z,82.46
2022-12-03T17:04:52.057Z,82.45
2022-12-03T17:07:55.093Z,82.46
2022-12-03T17:10:58.151Z,82.49
2022-12-03T17:14:01.142Z,82.46
2022-12-03T17:17:04.222Z,82.45
2022-12-03T17:20:08.278Z,82.45
2022-12-03T17:23:12.535Z,82.44
2022-12-03T17:26:15.520Z,82.49
2022-12-03T17:29:18.650Z,82.47
2022-12-03T17:32:25.378Z,82.44
2022-12-03T17:35:30.793Z,82.44
2022-12-03T17:38:39.035Z,82.44
2022-12-03T17:41:46.410Z,82.43
2022-12-03T17:44:50.065Z,82.40
2022-12-03T17:47:54.155Z,82.37
2022-12-03T17:50:58.140Z,82.36
2022-12-03T17:54:01.066Z,82.36
2022-12-03T17:57:06.349Z,82.35
2022-12-03T18:00:09.844Z,82.35
2022-12-03T18:03:16.589Z,82.34
2022-12-03T18:06:19.539Z,82.34
2022-12-03T18:09:22.694Z,82.33
2022-12-03T18:12:25.745Z,82.33
2022-12-03T18:15:29.076Z,82.35
2022-12-03T18:18:32.569Z,82.33
2022-12-03T18:21:38.947Z,82.32
2022-12-03T18:24:47.596Z,82.31
2022-12-03T18:27:53.345Z,82.28
2022-12-03T18:31:01.667Z,82.30
2022-12-03T18:34:04.611Z,82.29
2022-12-03T18:37:11.896Z,82.30
2022-12-03T18:40:24.659Z,82.29
2022-12-03T18:43:29.757Z,82.26
2022-12-03T18:46:52.889Z,82.26
2022-12-03T18:49:57.826Z,82.28
2022-12-03T18:53:01.412Z,82.26
2022-12-03T18:56:04.612Z,82.25
2022-12-03T18:59:07.834Z,82.25
2022-12-03T19:02:32.469Z,82.22
2022-12-03T19:05:40.333Z,82.26
2022-12-03T19:08:44.216Z,82.25
2022-12-03T19:11:47.271Z,82.22
2022-12-03T19:14:51.138Z,82.27
2022-12-03T19:17:54.162Z,82.30
2022-12-03T19:20:57.418Z,82.30
2022-12-03T19:24:24.305Z,82.32
2022-12-03T19:27:24.375Z,82.30
2022-12-03T19:30:27.335Z,82.30
2022-12-03T19:33:31.244Z,82.33
2022-12-03T19:36:34.551Z,82.34
2022-12-03T19:39:37.538Z,82.37
2022-12-03T19:42:40.562Z,82.37
2022-12-03T19:45:43.527Z,82.38
2022-12-03T19:48:47.000Z,82.42
2022-12-03T19:51:50.462Z,82.46
2022-12-03T19:54:53.503Z,82.47
2022-12-03T19:57:56.626Z,82.49
2022-12-03T20:01:14.764Z,82.48
2022-12-03T20:04:17.741Z,82.50
2022-12-03T20:07:20.844Z,82.51
2022-12-03T20:10:24.017Z,82.56
2022-12-03T20:13:29.822Z,82.59
2022-12-03T20:16:35.789Z,82.57
2022-12-03T20:19:38.934Z,82.61
2022-12-03T20:22:43.352Z,82.63
2022-12-03T20:25:46.311Z,82.65
2022-12-03T20:28:50.098Z,82.66
2022-12-03T20:31:53.096Z,82.69
2022-12-03T20:34:56.142Z,82.72
2022-12-03T20:37:59.073Z,82.73
2022-12-03T20:41:04.129Z,82.78
2022-12-03T20:44:07.914Z,82.84
2022-12-03T20:47:10.885Z,82.87
2022-12-03T20:50:13.785Z,82.89
2022-12-03T20:53:24.746Z,82.95
2022-12-03T20:56:31.845Z,83.00
2022-12-03T20:59:34.850Z,82.98
2022-12-03T21:02:38.250Z,83.05
2022-12-03T21:05:43.825Z,83.07
2022-12-03T21:08:47.504Z,83.07
2022-12-03T21:11:50.589Z,83.12
2022-12-03T21:14:53.576Z,83.13
2022-12-03T21:17:56.556Z,83.17
2022-12-03T21:21:01.968Z,83.19
2022-12-03T21:24:05.376Z,83.22
2022-12-03T21:27:08.515Z,83.29
2022-12-03T21:30:11.873Z,83.29
2022-12-03T21:33:15.055Z,83.27
2022-12-03T21:36:18.168Z,83.30
2022-12-03T21:39:21.123Z,83.31
2022-12-03T21:42:35.573Z,83.32
2022-12-03T21:45:43.076Z,83.34
2022-12-03T21:48:48.466Z,83.41
2022-12-03T21:51:51.626Z,83.47
2022-12-03T21:54:55.147Z,83.41
2022-12-03T21:57:58.420Z,83.40
2022-12-03T22:01:01.713Z,83.42
2022-12-03T22:04:04.867Z,83.51
2022-12-03T22:07:07.941Z,83.51
2022-12-03T22:10:11.823Z,83.47
2022-12-03T22:13:14.846Z,83.49
2022-12-03T22:16:20.210Z,83.49
2022-12-03T22:19:24.507Z,83.52
2022-12-03T22:22:27.434Z,83.51
2022-12-03T22:25:30.708Z,83.51
2022-12-03T22:28:35.267Z,83.47
2022-12-03T22:31:38.405Z,83.48
2022-12-03T22:34:41.740Z,83.45
2022-12-03T22:37:44.705Z,83.50
2022-12-03T22:40:47.724Z,83.51
2022-12-03T22:43:50.723Z,83.58
2022-12-03T22:46:53.775Z,83.60
2022-12-03T22:49:57.158Z,83.69
2022-12-03T22:53:00.235Z,83.74
2022-12-03T22:56:03.225Z,83.78
2022-12-03T22:59:06.854Z,83.81
2022-12-03T23:02:09.952Z,83.82
2022-12-03T23:05:12.970Z,83.88
2022-12-03T23:08:19.592Z,83.95
2022-12-03T23:11:23.388Z,83.98
2022-12-03T23:14:26.343Z,84.00
2022-12-03T23:17:29.335Z,84.00
2022-12-03T23:20:32.333Z,84.05
2022-12-03T23:23:35.341Z,84.07
2022-12-03T23:26:39.484Z,84.05
2022-12-03T23:29:42.454Z,84.06
2022-12-03T23:32:45.582Z,84.08
2022-12-03T23:35:48.607Z,84.07
2022-12-03T23:38:51.654Z,84.10
2022-12-03T23:41:54.666Z,84.13
2022-12-03T23:44:57.657Z,84.09
2022-12-03T23:48:01.158Z,84.09
2022-12-03T23:51:10.322Z,84.13
2022-12-03T23:54:13.368Z,84.10
2022-12-03T23:57:16.332Z,84.09
